sensor_id;sensor_type;location;lat;lon;timestamp;temperature;humidity
33943;DHT22;66763;47.856;17.462;2023-10-13T00:00:26;19.50;53.70
33943;DHT22;66763;47.856;17.462;2023-10-13T00:02:51;19.50;53.70
33943;DHT22;66763;47.856;17.462;2023-10-13T00:05:20;19.50;53.80
33943;DHT22;66763;47.856;17.462;2023-10-13T00:07:45;19.40;53.70
33943;DHT22;66763;47.856;17.462;2023-10-13T00:10:11;19.40;53.70
33943;DHT22;66763;47.856;17.462;2023-10-13T00:12:37;19.50;53.70
33943;DHT22;66763;47.856;17.462;2023-10-13T00:15:03;19.50;53.70
33943;DHT22;66763;47.856;17.462;2023-10-13T00:17:30;19.50;53.70
33943;DHT22;66763;47.856;17.462;2023-10-13T00:19:57;19.50;53.70
33943;DHT22;66763;47.856;17.462;2023-10-13T00:22:25;19.40;53.70
33943;DHT22;66763;47.856;17.462;2023-10-13T00:24:52;19.50;53.70
33943;DHT22;66763;47.856;17.462;2023-10-13T00:27:24;19.40;53.70
33943;DHT22;66763;47.856;17.462;2023-10-13T00:29:56;19.50;53.80
33943;DHT22;66763;47.856;17.462;2023-10-13T00:32:41;19.50;53.70
33943;DHT22;66763;47.856;17.462;2023-10-13T00:35:10;19.50;53.70
33943;DHT22;66763;47.856;17.462;2023-10-13T00:37:39;19.50;53.70
33943;DHT22;66763;47.856;17.462;2023-10-13T00:40:10;19.50;53.70
33943;DHT22;66763;47.856;17.462;2023-10-13T00:42:51;19.40;53.70
33943;DHT22;66763;47.856;17.462;2023-10-13T00:45:17;19.50;53.70
33943;DHT22;66763;47.856;17.462;2023-10-13T00:47:43;19.50;53.70
33943;DHT22;66763;47.856;17.462;2023-10-13T00:50:21;19.40;53.60
33943;DHT22;66763;47.856;17.462;2023-10-13T00:52:49;19.40;53.60
33943;DHT22;66763;47.856;17.462;2023-10-13T00:55:16;19.40;53.60
33943;DHT22;66763;47.856;17.462;2023-10-13T00:57:43;19.40;53.60
33943;DHT22;66763;47.856;17.462;2023-10-13T01:00:08;19.40;53.70
33943;DHT22;66763;47.856;17.462;2023-10-13T01:03:06;19.50;53.70
33943;DHT22;66763;47.856;17.462;2023-10-13T01:05:32;19.40;53.60
33943;DHT22;66763;47.856;17.462;2023-10-13T01:08:01;19.50;53.70
33943;DHT22;66763;47.856;17.462;2023-10-13T01:10:28;19.40;53.60
33943;DHT22;66763;47.856;17.462;2023-10-13T01:12:57;19.50;53.70
33943;DHT22;66763;47.856;17.462;2023-10-13T01:15:24;19.40;53.60
33943;DHT22;66763;47.856;17.462;2023-10-13T01:18:05;19.50;53.70
33943;DHT22;66763;47.856;17.462;2023-10-13T01:20:37;19.50;53.70
33943;DHT22;66763;47.856;17.462;2023-10-13T01:23:12;19.40;53.70
33943;DHT22;66763;47.856;17.462;2023-10-13T01:25:44;19.50;53.70
33943;DHT22;66763;47.856;17.462;2023-10-13T01:28:09;19.50;53.70
33943;DHT22;66763;47.856;17.462;2023-10-13T01:30:35;19.40;53.70
33943;DHT22;66763;47.856;17.462;2023-10-13T01:33:03;19.40;53.60
33943;DHT22;66763;47.856;17.462;2023-10-13T01:35:29;19.40;53.60
33943;DHT22;66763;47.856;17.462;2023-10-13T01:38:01;19.50;53.70
33943;DHT22;66763;47.856;17.462;2023-10-13T01:40:27;19.50;53.60
33943;DHT22;66763;47.856;17.462;2023-10-13T01:42:54;19.50;53.60
33943;DHT22;66763;47.856;17.462;2023-10-13T01:45:21;19.40;53.60
33943;DHT22;66763;47.856;17.462;2023-10-13T01:47:46;19.50;53.70
33943;DHT22;66763;47.856;17.462;2023-10-13T01:50:12;19.50;53.60
33943;DHT22;66763;47.856;17.462;2023-10-13T01:52:46;19.50;53.70
33943;DHT22;66763;47.856;17.462;2023-10-13T01:55:12;19.50;53.70
33943;DHT22;66763;47.856;17.462;2023-10-13T01:57:40;19.50;53.70
33943;DHT22;66763;47.856;17.462;2023-10-13T02:00:12;19.40;53.60
33943;DHT22;66763;47.856;17.462;2023-10-13T02:02:45;19.50;53.70
33943;DHT22;66763;47.856;17.462;2023-10-13T02:05:11;19.40;53.60
33943;DHT22;66763;47.856;17.462;2023-10-13T02:07:37;19.50;53.70
33943;DHT22;66763;47.856;17.462;2023-10-13T02:10:03;19.50;53.70
33943;DHT22;66763;47.856;17.462;2023-10-13T02:12:37;19.50;53.70
33943;DHT22;66763;47.856;17.462;2023-10-13T02:15:09;19.40;53.60
33943;DHT22;66763;47.856;17.462;2023-10-13T02:17:38;19.50;53.70
33943;DHT22;66763;47.856;17.462;2023-10-13T02:20:07;19.50;53.70
33943;DHT22;66763;47.856;17.462;2023-10-13T02:22:42;19.50;53.70
33943;DHT22;66763;47.856;17.462;2023-10-13T02:25:17;19.40;53.70
33943;DHT22;66763;47.856;17.462;2023-10-13T02:28:03;19.50;53.70
33943;DHT22;66763;47.856;17.462;2023-10-13T02:30:37;19.40;53.70
33943;DHT22;66763;47.856;17.462;2023-10-13T02:33:02;19.40;53.70
33943;DHT22;66763;47.856;17.462;2023-10-13T02:35:31;19.50;53.70
33943;DHT22;66763;47.856;17.462;2023-10-13T02:38:09;19.40;53.70
33943;DHT22;66763;47.856;17.462;2023-10-13T02:40:38;19.40;53.70
33943;DHT22;66763;47.856;17.462;2023-10-13T02:43:04;19.40;53.70
33943;DHT22;66763;47.856;17.462;2023-10-13T02:45:31;19.50;53.70
33943;DHT22;66763;47.856;17.462;2023-10-13T02:47:57;19.50;53.70
33943;DHT22;66763;47.856;17.462;2023-10-13T02:50:45;19.40;53.70
33943;DHT22;66763;47.856;17.462;2023-10-13T02:53:19;19.50;53.70
33943;DHT22;66763;47.856;17.462;2023-10-13T02:55:49;19.40;53.70
33943;DHT22;66763;47.856;17.462;2023-10-13T02:58:14;19.40;53.70
33943;DHT22;66763;47.856;17.462;2023-10-13T03:00:40;19.50;53.70
33943;DHT22;66763;47.856;17.462;2023-10-13T03:03:06;19.50;53.70
33943;DHT22;66763;47.856;17.462;2023-10-13T03:05:34;19.50;53.70
33943;DHT22;66763;47.856;17.462;2023-10-13T03:08:00;19.40;53.70
33943;DHT22;66763;47.856;17.462;2023-10-13T03:10:29;19.50;53.70
33943;DHT22;66763;47.856;17.462;2023-10-13T03:12:54;19.50;53.70
33943;DHT22;66763;47.856;17.462;2023-10-13T03:15:20;19.40;53.70
33943;DHT22;66763;47.856;17.462;2023-10-13T03:17:54;19.50;53.70
33943;DHT22;66763;47.856;17.462;2023-10-13T03:20:20;19.40;53.70
33943;DHT22;66763;47.856;17.462;2023-10-13T03:22:59;19.40;53.70
33943;DHT22;66763;47.856;17.462;2023-10-13T03:25:24;19.40;53.70
33943;DHT22;66763;47.856;17.462;2023-10-13T03:28:02;19.40;53.70
33943;DHT22;66763;47.856;17.462;2023-10-13T03:30:30;19.50;53.80
33943;DHT22;66763;47.856;17.462;2023-10-13T03:33:04;19.50;53.70
33943;DHT22;66763;47.856;17.462;2023-10-13T03:35:37;19.50;53.70
33943;DHT22;66763;47.856;17.462;2023-10-13T03:38:03;19.50;53.70
33943;DHT22;66763;47.856;17.462;2023-10-13T03:40:29;19.50;53.80
33943;DHT22;66763;47.856;17.462;2023-10-13T03:42:56;19.40;53.70
33943;DHT22;66763;47.856;17.462;2023-10-13T03:45:45;19.40;53.70
33943;DHT22;66763;47.856;17.462;2023-10-13T03:48:14;19.40;53.70
33943;DHT22;66763;47.856;17.462;2023-10-13T03:51:01;19.40;53.70
33943;DHT22;66763;47.856;17.462;2023-10-13T03:53:39;19.40;53.70
33943;DHT22;66763;47.856;17.462;2023-10-13T03:56:18;19.50;53.70
33943;DHT22;66763;47.856;17.462;2023-10-13T03:58:51;19.40;53.70
33943;DHT22;66763;47.856;17.462;2023-10-13T04:01:19;19.50;53.70
33943;DHT22;66763;47.856;17.462;2023-10-13T04:03:50;19.40;53.70
33943;DHT22;66763;47.856;17.462;2023-10-13T04:06:36;19.50;53.70
33943;DHT22;66763;47.856;17.462;2023-10-13T04:09:17;19.50;53.70
33943;DHT22;66763;47.856;17.462;2023-10-13T04:11:57;19.40;53.70
33943;DHT22;66763;47.856;17.462;2023-10-13T04:17:13;19.40;53.70
33943;DHT22;66763;47.856;17.462;2023-10-13T04:19:50;19.40;53.70
33943;DHT22;66763;47.856;17.462;2023-10-13T04:22:48;19.50;53.80
33943;DHT22;66763;47.856;17.462;2023-10-13T04:28:12;19.50;53.80
33943;DHT22;66763;47.856;17.462;2023-10-13T04:30:50;19.50;53.80
33943;DHT22;66763;47.856;17.462;2023-10-13T04:36:08;19.40;53.70
33943;DHT22;66763;47.856;17.462;2023-10-13T04:38:50;19.40;53.70
33943;DHT22;66763;47.856;17.462;2023-10-13T04:41:25;19.40;53.80
33943;DHT22;66763;47.856;17.462;2023-10-13T04:43:59;19.40;53.70
33943;DHT22;66763;47.856;17.462;2023-10-13T04:46:48;19.40;53.70
33943;DHT22;66763;47.856;17.462;2023-10-13T04:49:14;19.50;53.80
33943;DHT22;66763;47.856;17.462;2023-10-13T04:52:01;19.40;53.70
33943;DHT22;66763;47.856;17.462;2023-10-13T04:54:36;19.50;53.70
33943;DHT22;66763;47.856;17.462;2023-10-13T04:57:18;19.40;53.70
33943;DHT22;66763;47.856;17.462;2023-10-13T05:00:19;19.40;53.70
33943;DHT22;66763;47.856;17.462;2023-10-13T05:02:45;19.40;53.80
33943;DHT22;66763;47.856;17.462;2023-10-13T05:05:27;19.40;53.70
33943;DHT22;66763;47.856;17.462;2023-10-13T05:08:11;19.40;53.70
33943;DHT22;66763;47.856;17.462;2023-10-13T05:10:55;19.40;53.70
33943;DHT22;66763;47.856;17.462;2023-10-13T05:13:39;19.50;53.80
33943;DHT22;66763;47.856;17.462;2023-10-13T05:16:23;19.40;53.70
33943;DHT22;66763;47.856;17.462;2023-10-13T05:19:08;19.50;53.80
33943;DHT22;66763;47.856;17.462;2023-10-13T05:21:51;19.50;53.80
33943;DHT22;66763;47.856;17.462;2023-10-13T05:24:36;19.50;53.80
33943;DHT22;66763;47.856;17.462;2023-10-13T05:27:20;19.50;53.80
33943;DHT22;66763;47.856;17.462;2023-10-13T05:30:04;19.40;53.80
33943;DHT22;66763;47.856;17.462;2023-10-13T05:32:49;19.50;53.90
33943;DHT22;66763;47.856;17.462;2023-10-13T05:35:33;19.40;53.80
33943;DHT22;66763;47.856;17.462;2023-10-13T05:38:17;19.40;53.80
33943;DHT22;66763;47.856;17.462;2023-10-13T05:41:05;19.40;53.80
33943;DHT22;66763;47.856;17.462;2023-10-13T05:43:49;19.40;53.80
33943;DHT22;66763;47.856;17.462;2023-10-13T05:46:34;19.40;53.80
33943;DHT22;66763;47.856;17.462;2023-10-13T05:49:02;19.50;53.90
33943;DHT22;66763;47.856;17.462;2023-10-13T05:51:31;19.40;53.80
33943;DHT22;66763;47.856;17.462;2023-10-13T05:53:58;19.40;53.80
33943;DHT22;66763;47.856;17.462;2023-10-13T05:56:48;19.50;53.80
33943;DHT22;66763;47.856;17.462;2023-10-13T05:59:33;19.50;53.80
33943;DHT22;66763;47.856;17.462;2023-10-13T06:02:18;19.40;53.80
33943;DHT22;66763;47.856;17.462;2023-10-13T06:05:03;19.50;53.90
33943;DHT22;66763;47.856;17.462;2023-10-13T06:07:47;19.40;53.80
33943;DHT22;66763;47.856;17.462;2023-10-13T06:10:32;19.40;53.80
33943;DHT22;66763;47.856;17.462;2023-10-13T06:13:16;19.40;53.80
33943;DHT22;66763;47.856;17.462;2023-10-13T06:16:04;19.40;53.90
33943;DHT22;66763;47.856;17.462;2023-10-13T06:18:48;19.50;53.90
33943;DHT22;66763;47.856;17.462;2023-10-13T06:21:32;19.40;53.90
33943;DHT22;66763;47.856;17.462;2023-10-13T06:24:16;19.40;53.80
33943;DHT22;66763;47.856;17.462;2023-10-13T06:27:00;19.50;53.90
33943;DHT22;66763;47.856;17.462;2023-10-13T06:29:44;19.50;53.90
33943;DHT22;66763;47.856;17.462;2023-10-13T06:32:11;19.40;53.80
33943;DHT22;66763;47.856;17.462;2023-10-13T06:34:37;19.50;54.20
33943;DHT22;66763;47.856;17.462;2023-10-13T06:37:06;19.50;53.80
33943;DHT22;66763;47.856;17.462;2023-10-13T06:39:48;19.50;53.80
33943;DHT22;66763;47.856;17.462;2023-10-13T06:42:14;19.40;53.80
33943;DHT22;66763;47.856;17.462;2023-10-13T06:44:40;19.50;53.80
33943;DHT22;66763;47.856;17.462;2023-10-13T06:47:10;19.40;53.70
33943;DHT22;66763;47.856;17.462;2023-10-13T06:49:37;19.50;53.80
33943;DHT22;66763;47.856;17.462;2023-10-13T06:52:07;19.50;53.80
33943;DHT22;66763;47.856;17.462;2023-10-13T06:54:32;19.40;53.70
33943;DHT22;66763;47.856;17.462;2023-10-13T06:57:02;19.50;53.80
33943;DHT22;66763;47.856;17.462;2023-10-13T06:59:31;19.40;53.70
33943;DHT22;66763;47.856;17.462;2023-10-13T07:02:00;19.50;53.80
33943;DHT22;66763;47.856;17.462;2023-10-13T07:04:37;19.50;53.80
33943;DHT22;66763;47.856;17.462;2023-10-13T07:07:06;19.50;53.80
33943;DHT22;66763;47.856;17.462;2023-10-13T07:09:36;19.50;53.80
33943;DHT22;66763;47.856;17.462;2023-10-13T07:12:02;19.50;53.80
33943;DHT22;66763;47.856;17.462;2023-10-13T07:14:29;19.50;53.70
33943;DHT22;66763;47.856;17.462;2023-10-13T07:16:55;19.50;53.70
33943;DHT22;66763;47.856;17.462;2023-10-13T07:19:24;19.50;53.80
33943;DHT22;66763;47.856;17.462;2023-10-13T07:21:56;19.50;53.80
33943;DHT22;66763;47.856;17.462;2023-10-13T07:24:24;19.50;53.70
33943;DHT22;66763;47.856;17.462;2023-10-13T07:26:51;19.50;53.70
33943;DHT22;66763;47.856;17.462;2023-10-13T07:29:27;19.50;53.70
33943;DHT22;66763;47.856;17.462;2023-10-13T07:31:52;19.50;53.70
33943;DHT22;66763;47.856;17.462;2023-10-13T07:34:18;19.50;53.70
33943;DHT22;66763;47.856;17.462;2023-10-13T07:36:56;19.50;53.70
33943;DHT22;66763;47.856;17.462;2023-10-13T07:39:28;19.50;53.80
33943;DHT22;66763;47.856;17.462;2023-10-13T07:41:53;19.50;53.70
33943;DHT22;66763;47.856;17.462;2023-10-13T07:44:20;19.50;53.80
33943;DHT22;66763;47.856;17.462;2023-10-13T07:46:50;19.50;53.70
33943;DHT22;66763;47.856;17.462;2023-10-13T07:49:26;19.40;53.70
33943;DHT22;66763;47.856;17.462;2023-10-13T07:51:59;19.50;53.70
33943;DHT22;66763;47.856;17.462;2023-10-13T07:54:26;19.50;53.80
33943;DHT22;66763;47.856;17.462;2023-10-13T07:56:52;19.50;53.70
33943;DHT22;66763;47.856;17.462;2023-10-13T07:59:20;19.50;53.70
33943;DHT22;66763;47.856;17.462;2023-10-13T08:01:48;19.50;53.70
33943;DHT22;66763;47.856;17.462;2023-10-13T08:04:31;19.50;53.70
33943;DHT22;66763;47.856;17.462;2023-10-13T08:07:01;19.50;53.70
33943;DHT22;66763;47.856;17.462;2023-10-13T08:09:38;19.50;53.70
33943;DHT22;66763;47.856;17.462;2023-10-13T08:12:08;19.50;53.70
33943;DHT22;66763;47.856;17.462;2023-10-13T08:14:38;19.50;53.70
33943;DHT22;66763;47.856;17.462;2023-10-13T08:17:08;19.50;53.80
33943;DHT22;66763;47.856;17.462;2023-10-13T08:19:35;19.50;53.80
33943;DHT22;66763;47.856;17.462;2023-10-13T08:22:18;19.50;53.70
33943;DHT22;66763;47.856;17.462;2023-10-13T08:24:44;19.50;53.70
33943;DHT22;66763;47.856;17.462;2023-10-13T08:27:10;19.50;53.70
33943;DHT22;66763;47.856;17.462;2023-10-13T08:29:54;19.50;53.70
33943;DHT22;66763;47.856;17.462;2023-10-13T08:32:20;19.50;53.80
33943;DHT22;66763;47.856;17.462;2023-10-13T08:35:01;19.50;53.80
33943;DHT22;66763;47.856;17.462;2023-10-13T08:37:30;19.50;53.80
33943;DHT22;66763;47.856;17.462;2023-10-13T08:40:00;19.50;53.80
33943;DHT22;66763;47.856;17.462;2023-10-13T08:42:29;19.50;53.80
33943;DHT22;66763;47.856;17.462;2023-10-13T08:45:13;19.50;53.80
33943;DHT22;66763;47.856;17.462;2023-10-13T08:47:48;19.50;53.80
33943;DHT22;66763;47.856;17.462;2023-10-13T08:50:54;19.50;53.80
33943;DHT22;66763;47.856;17.462;2023-10-13T08:53:19;19.40;53.80
33943;DHT22;66763;47.856;17.462;2023-10-13T08:56:07;19.50;53.80
33943;DHT22;66763;47.856;17.462;2023-10-13T08:58:39;19.40;53.80
33943;DHT22;66763;47.856;17.462;2023-10-13T09:01:23;19.50;53.80
33943;DHT22;66763;47.856;17.462;2023-10-13T09:04:04;19.50;53.90
33943;DHT22;66763;47.856;17.462;2023-10-13T09:12:20;19.40;53.80
33943;DHT22;66763;47.856;17.462;2023-10-13T09:14:54;19.50;53.90
33943;DHT22;66763;47.856;17.462;2023-10-13T09:17:26;19.50;53.90
33943;DHT22;66763;47.856;17.462;2023-10-13T09:22:45;19.50;53.80
33943;DHT22;66763;47.856;17.462;2023-10-13T09:25:22;19.50;53.90
33943;DHT22;66763;47.856;17.462;2023-10-13T09:27:48;19.50;53.90
33943;DHT22;66763;47.856;17.462;2023-10-13T09:30:16;19.50;53.80
33943;DHT22;66763;47.856;17.462;2023-10-13T09:32:47;19.50;53.80
33943;DHT22;66763;47.856;17.462;2023-10-13T09:35:18;19.50;53.80
33943;DHT22;66763;47.856;17.462;2023-10-13T09:37:45;19.50;53.80
33943;DHT22;66763;47.856;17.462;2023-10-13T09:40:14;19.50;53.80
33943;DHT22;66763;47.856;17.462;2023-10-13T09:42:58;19.50;53.80
33943;DHT22;66763;47.856;17.462;2023-10-13T09:45:29;19.50;53.80
33943;DHT22;66763;47.856;17.462;2023-10-13T09:48:01;19.50;53.80
33943;DHT22;66763;47.856;17.462;2023-10-13T09:50:35;19.50;53.80
33943;DHT22;66763;47.856;17.462;2023-10-13T09:53:03;19.50;53.80
33943;DHT22;66763;47.856;17.462;2023-10-13T09:55:35;19.50;53.80
33943;DHT22;66763;47.856;17.462;2023-10-13T09:58:07;19.60;53.90
33943;DHT22;66763;47.856;17.462;2023-10-13T10:00:40;19.50;53.80
33943;DHT22;66763;47.856;17.462;2023-10-13T10:03:07;19.60;53.80
33943;DHT22;66763;47.856;17.462;2023-10-13T10:05:55;19.50;53.80
33943;DHT22;66763;47.856;17.462;2023-10-13T10:08:29;19.50;53.80
33943;DHT22;66763;47.856;17.462;2023-10-13T10:17:11;19.50;53.80
33943;DHT22;66763;47.856;17.462;2023-10-13T10:19:14;19.50;53.80
33943;DHT22;66763;47.856;17.462;2023-10-13T10:21:40;19.50;53.80
33943;DHT22;66763;47.856;17.462;2023-10-13T10:24:21;19.50;53.80
33943;DHT22;66763;47.856;17.462;2023-10-13T10:27:05;19.50;53.80
33943;DHT22;66763;47.856;17.462;2023-10-13T10:29:31;19.50;53.80
33943;DHT22;66763;47.856;17.462;2023-10-13T10:31:57;19.50;53.80
33943;DHT22;66763;47.856;17.462;2023-10-13T10:34:29;19.50;53.80
33943;DHT22;66763;47.856;17.462;2023-10-13T10:36:55;19.50;53.80
33943;DHT22;66763;47.856;17.462;2023-10-13T10:39:20;19.60;53.90
33943;DHT22;66763;47.856;17.462;2023-10-13T10:42:07;19.60;53.90
33943;DHT22;66763;47.856;17.462;2023-10-13T10:44:40;19.60;53.90
33943;DHT22;66763;47.856;17.462;2023-10-13T10:47:11;19.60;53.90
33943;DHT22;66763;47.856;17.462;2023-10-13T10:49:37;19.50;53.80
33943;DHT22;66763;47.856;17.462;2023-10-13T10:52:03;19.60;53.90
33943;DHT22;66763;47.856;17.462;2023-10-13T10:54:31;19.60;53.90
33943;DHT22;66763;47.856;17.462;2023-10-13T10:56:59;19.50;53.80
33943;DHT22;66763;47.856;17.462;2023-10-13T10:59:39;19.60;53.90
33943;DHT22;66763;47.856;17.462;2023-10-13T11:02:05;19.60;53.90
33943;DHT22;66763;47.856;17.462;2023-10-13T11:04:32;19.50;53.80
33943;DHT22;66763;47.856;17.462;2023-10-13T11:07:05;19.60;53.90
33943;DHT22;66763;47.856;17.462;2023-10-13T11:09:32;19.50;53.80
33943;DHT22;66763;47.856;17.462;2023-10-13T11:12:12;19.60;53.90
33943;DHT22;66763;47.856;17.462;2023-10-13T11:14:44;19.50;53.80
33943;DHT22;66763;47.856;17.462;2023-10-13T11:17:20;19.60;53.90
33943;DHT22;66763;47.856;17.462;2023-10-13T11:19:51;19.50;53.80
33943;DHT22;66763;47.856;17.462;2023-10-13T11:25:01;19.60;53.90
33943;DHT22;66763;47.856;17.462;2023-10-13T11:27:35;19.60;53.90
33943;DHT22;66763;47.856;17.462;2023-10-13T11:30:20;19.60;53.90
33943;DHT22;66763;47.856;17.462;2023-10-13T11:33:11;19.50;53.80
33943;DHT22;66763;47.856;17.462;2023-10-13T11:35:36;19.60;53.90
33943;DHT22;66763;47.856;17.462;2023-10-13T11:38:14;19.60;53.90
33943;DHT22;66763;47.856;17.462;2023-10-13T11:40:41;19.50;53.80
33943;DHT22;66763;47.856;17.462;2023-10-13T11:43:10;19.60;53.90
33943;DHT22;66763;47.856;17.462;2023-10-13T11:45:40;19.60;53.90
33943;DHT22;66763;47.856;17.462;2023-10-13T11:48:19;19.60;53.90
33943;DHT22;66763;47.856;17.462;2023-10-13T11:51:00;19.50;53.80
33943;DHT22;66763;47.856;17.462;2023-10-13T11:53:26;19.60;53.90
33943;DHT22;66763;47.856;17.462;2023-10-13T11:55:52;19.60;53.90
33943;DHT22;66763;47.856;17.462;2023-10-13T11:58:18;19.60;54.50
33943;DHT22;66763;47.856;17.462;2023-10-13T12:00:45;19.60;53.80
33943;DHT22;66763;47.856;17.462;2023-10-13T12:03:16;19.60;53.80
33943;DHT22;66763;47.856;17.462;2023-10-13T12:06:00;19.60;53.90
33943;DHT22;66763;47.856;17.462;2023-10-13T12:08:48;19.60;53.90
33943;DHT22;66763;47.856;17.462;2023-10-13T12:11:17;19.60;53.90
33943;DHT22;66763;47.856;17.462;2023-10-13T12:13:58;19.60;53.90
33943;DHT22;66763;47.856;17.462;2023-10-13T12:16:23;19.60;53.90
33943;DHT22;66763;47.856;17.462;2023-10-13T12:18:59;19.60;53.90
33943;DHT22;66763;47.856;17.462;2023-10-13T12:21:26;19.60;53.90
33943;DHT22;66763;47.856;17.462;2023-10-13T12:23:52;19.60;53.90
33943;DHT22;66763;47.856;17.462;2023-10-13T12:26:19;19.60;53.90
33943;DHT22;66763;47.856;17.462;2023-10-13T12:28:45;19.60;53.90
33943;DHT22;66763;47.856;17.462;2023-10-13T12:31:17;19.60;53.90
33943;DHT22;66763;47.856;17.462;2023-10-13T12:33:43;19.60;53.90
33943;DHT22;66763;47.856;17.462;2023-10-13T12:36:12;19.60;53.90
33943;DHT22;66763;47.856;17.462;2023-10-13T12:38:38;19.60;53.90
33943;DHT22;66763;47.856;17.462;2023-10-13T12:41:16;19.60;53.90
33943;DHT22;66763;47.856;17.462;2023-10-13T12:44:00;19.60;53.90
33943;DHT22;66763;47.856;17.462;2023-10-13T12:46:44;19.60;53.90
33943;DHT22;66763;47.856;17.462;2023-10-13T12:49:28;19.60;54.00
33943;DHT22;66763;47.856;17.462;2023-10-13T12:52:12;19.60;54.00
33943;DHT22;66763;47.856;17.462;2023-10-13T12:54:50;19.60;54.00
33943;DHT22;66763;47.856;17.462;2023-10-13T12:57:22;19.60;54.30
33943;DHT22;66763;47.856;17.462;2023-10-13T12:59:50;19.60;54.00
33943;DHT22;66763;47.856;17.462;2023-10-13T13:02:23;19.60;54.00
33943;DHT22;66763;47.856;17.462;2023-10-13T13:04:51;19.60;54.00
33943;DHT22;66763;47.856;17.462;2023-10-13T13:07:22;19.60;53.90
33943;DHT22;66763;47.856;17.462;2023-10-13T13:09:48;19.60;53.90
33943;DHT22;66763;47.856;17.462;2023-10-13T13:12:13;19.60;53.90
33943;DHT22;66763;47.856;17.462;2023-10-13T13:14:39;19.60;53.90
33943;DHT22;66763;47.856;17.462;2023-10-13T13:17:11;19.60;53.90
33943;DHT22;66763;47.856;17.462;2023-10-13T13:19:37;19.60;53.90
33943;DHT22;66763;47.856;17.462;2023-10-13T13:22:06;19.60;53.90
33943;DHT22;66763;47.856;17.462;2023-10-13T13:24:37;19.60;53.90
33943;DHT22;66763;47.856;17.462;2023-10-13T13:27:11;19.60;53.90
33943;DHT22;66763;47.856;17.462;2023-10-13T13:29:43;19.60;53.90
33943;DHT22;66763;47.856;17.462;2023-10-13T13:32:08;19.60;53.90
33943;DHT22;66763;47.856;17.462;2023-10-13T13:34:44;19.60;53.90
33943;DHT22;66763;47.856;17.462;2023-10-13T13:37:10;19.60;53.90
33943;DHT22;66763;47.856;17.462;2023-10-13T13:39:38;19.60;53.90
33943;DHT22;66763;47.856;17.462;2023-10-13T13:42:09;19.60;53.90
33943;DHT22;66763;47.856;17.462;2023-10-13T13:44:34;19.60;53.90
33943;DHT22;66763;47.856;17.462;2023-10-13T13:47:03;19.60;53.90
33943;DHT22;66763;47.856;17.462;2023-10-13T13:49:37;19.60;53.90
33943;DHT22;66763;47.856;17.462;2023-10-13T13:52:08;19.60;53.90
33943;DHT22;66763;47.856;17.462;2023-10-13T13:54:35;19.60;53.90
33943;DHT22;66763;47.856;17.462;2023-10-13T13:57:00;19.60;53.90
33943;DHT22;66763;47.856;17.462;2023-10-13T13:59:26;19.60;53.90
33943;DHT22;66763;47.856;17.462;2023-10-13T14:01:51;19.60;53.90
33943;DHT22;66763;47.856;17.462;2023-10-13T14:04:18;19.60;53.90
33943;DHT22;66763;47.856;17.462;2023-10-13T14:06:44;19.60;53.90
33943;DHT22;66763;47.856;17.462;2023-10-13T14:09:10;19.60;53.90
33943;DHT22;66763;47.856;17.462;2023-10-13T14:11:58;19.60;53.90
33943;DHT22;66763;47.856;17.462;2023-10-13T14:14:43;19.60;53.90
33943;DHT22;66763;47.856;17.462;2023-10-13T14:17:21;19.60;53.90
33943;DHT22;66763;47.856;17.462;2023-10-13T14:19:55;19.60;53.90
33943;DHT22;66763;47.856;17.462;2023-10-13T14:22:20;19.60;53.90
33943;DHT22;66763;47.856;17.462;2023-10-13T14:24:50;19.60;53.90
33943;DHT22;66763;47.856;17.462;2023-10-13T14:27:19;19.60;53.90
33943;DHT22;66763;47.856;17.462;2023-10-13T14:29:48;19.60;53.90
33943;DHT22;66763;47.856;17.462;2023-10-13T14:32:18;19.60;53.90
33943;DHT22;66763;47.856;17.462;2023-10-13T14:34:44;19.60;53.90
33943;DHT22;66763;47.856;17.462;2023-10-13T14:37:10;19.60;53.90
33943;DHT22;66763;47.856;17.462;2023-10-13T14:39:39;19.60;53.90
33943;DHT22;66763;47.856;17.462;2023-10-13T14:42:05;19.60;53.90
33943;DHT22;66763;47.856;17.462;2023-10-13T14:44:34;19.60;53.90
33943;DHT22;66763;47.856;17.462;2023-10-13T14:47:00;19.60;53.90
33943;DHT22;66763;47.856;17.462;2023-10-13T14:49:25;19.60;53.90
33943;DHT22;66763;47.856;17.462;2023-10-13T14:51:51;19.60;53.90
33943;DHT22;66763;47.856;17.462;2023-10-13T14:54:17;19.60;53.90
33943;DHT22;66763;47.856;17.462;2023-10-13T14:56:50;19.60;53.90
33943;DHT22;66763;47.856;17.462;2023-10-13T14:59:20;19.60;53.90
33943;DHT22;66763;47.856;17.462;2023-10-13T15:01:47;19.60;53.90
33943;DHT22;66763;47.856;17.462;2023-10-13T15:04:14;19.60;53.90
33943;DHT22;66763;47.856;17.462;2023-10-13T15:06:40;19.60;53.90
33943;DHT22;66763;47.856;17.462;2023-10-13T15:09:05;19.60;53.90
33943;DHT22;66763;47.856;17.462;2023-10-13T15:11:36;19.60;53.90
33943;DHT22;66763;47.856;17.462;2023-10-13T15:14:03;19.60;53.90
33943;DHT22;66763;47.856;17.462;2023-10-13T15:16:29;19.70;53.90
33943;DHT22;66763;47.856;17.462;2023-10-13T15:18:55;19.60;53.90
33943;DHT22;66763;47.856;17.462;2023-10-13T15:23:55;19.60;53.90
33943;DHT22;66763;47.856;17.462;2023-10-13T15:26:29;19.60;53.90
33943;DHT22;66763;47.856;17.462;2023-10-13T15:28:55;19.60;53.90
33943;DHT22;66763;47.856;17.462;2023-10-13T15:31:26;19.60;53.90
33943;DHT22;66763;47.856;17.462;2023-10-13T15:34:02;19.70;53.90
33943;DHT22;66763;47.856;17.462;2023-10-13T15:36:41;19.60;53.90
33943;DHT22;66763;47.856;17.462;2023-10-13T15:39:12;19.70;54.00
33943;DHT22;66763;47.856;17.462;2023-10-13T15:41:41;19.60;53.90
33943;DHT22;66763;47.856;17.462;2023-10-13T15:44:10;19.60;53.90
33943;DHT22;66763;47.856;17.462;2023-10-13T15:46:36;19.70;54.00
33943;DHT22;66763;47.856;17.462;2023-10-13T15:49:02;19.60;53.90
33943;DHT22;66763;47.856;17.462;2023-10-13T15:51:34;19.60;53.90
33943;DHT22;66763;47.856;17.462;2023-10-13T15:54:02;19.70;54.00
33943;DHT22;66763;47.856;17.462;2023-10-13T15:56:28;19.60;53.90
33943;DHT22;66763;47.856;17.462;2023-10-13T15:58:58;19.60;54.50
33943;DHT22;66763;47.856;17.462;2023-10-13T16:01:23;19.60;54.00
33943;DHT22;66763;47.856;17.462;2023-10-13T16:03:49;19.60;54.00
33943;DHT22;66763;47.856;17.462;2023-10-13T16:06:17;19.70;54.00
33943;DHT22;66763;47.856;17.462;2023-10-13T16:08:43;19.60;54.00
33943;DHT22;66763;47.856;17.462;2023-10-13T16:11:09;19.60;54.00
33943;DHT22;66763;47.856;17.462;2023-10-13T16:13:41;19.70;54.00